createdAt,value
2022-12-15T00:00:10.192Z,16.67
2022-12-15T00:02:56.421Z,16.87
2022-12-15T00:05:42.523Z,17.50
2022-12-15T00:08:29.620Z,17.13
2022-12-15T00:11:15.267Z,17.93
2022-12-15T00:14:03.209Z,17.00
2022-12-15T00:16:49.063Z,17.93
2022-12-15T00:19:35.003Z,18.47
2022-12-15T00:22:20.864Z,18.73
2022-12-15T00:25:06.877Z,18.90
2022-12-15T00:27:52.546Z,17.93
2022-12-15T00:30:39.980Z,18.70
2022-12-15T00:33:30.429Z,18.47
2022-12-15T00:36:17.874Z,18.57
2022-12-15T00:38:46.561Z,17.50
2022-12-15T00:41:16.553Z,17.53
2022-12-15T00:43:45.624Z,18.73
2022-12-15T00:46:36.741Z,18.73
2022-12-15T00:49:25.242Z,17.63
2022-12-15T00:52:11.053Z,17.97
2022-12-15T00:54:56.483Z,17.57
2022-12-15T00:57:42.238Z,17.20
2022-12-15T01:00:30.105Z,17.30
2022-12-15T01:03:17.000Z,17.57
2022-12-15T01:06:03.158Z,18.20
2022-12-15T01:08:49.076Z,18.33
2022-12-15T01:11:34.701Z,18.27
2022-12-15T01:14:20.934Z,18.17
2022-12-15T01:17:06.803Z,18.03
2022-12-15T01:19:53.740Z,19.30
2022-12-15T01:22:22.307Z,18.60
2022-12-15T01:24:50.917Z,19.10
2022-12-15T01:27:19.087Z,19.27
2022-12-15T01:29:47.706Z,20.20
2022-12-15T01:32:16.781Z,20.50
2022-12-15T01:34:46.326Z,19.20
2022-12-15T01:37:14.977Z,18.37
2022-12-15T01:40:00.767Z,19.03
2022-12-15T01:42:29.395Z,18.87
2022-12-15T01:45:31.091Z,18.60
2022-12-15T01:48:06.739Z,18.07
2022-12-15T01:50:42.380Z,17.67
2022-12-15T01:53:11.913Z,18.50
2022-12-15T01:55:42.509Z,18.53
2022-12-15T01:58:13.937Z,19.33
2022-12-15T02:00:42.567Z,17.90
2022-12-15T02:03:12.063Z,17.60
2022-12-15T02:05:43.420Z,18.07
2022-12-15T02:08:12.436Z,19.70
2022-12-15T02:10:53.675Z,18.17
2022-12-15T02:13:29.414Z,20.30
2022-12-15T02:16:03.026Z,18.27
2022-12-15T02:18:37.320Z,19.23
2022-12-15T02:21:11.831Z,19.33
2022-12-15T02:24:18.028Z,19.70
2022-12-15T02:27:25.867Z,18.57
2022-12-15T02:30:20.064Z,17.33
2022-12-15T02:33:08.473Z,18.90
2022-12-15T02:35:46.848Z,18.07
2022-12-15T02:38:15.629Z,18.87
2022-12-15T02:40:43.743Z,17.73
2022-12-15T02:43:12.650Z,18.67
2022-12-15T02:45:53.669Z,18.23
2022-12-15T02:48:31.983Z,18.63
2022-12-15T02:51:12.857Z,17.87
2022-12-15T02:54:02.055Z,18.97
2022-12-15T02:56:36.450Z,17.90
2022-12-15T02:59:11.177Z,18.63
2022-12-15T03:01:46.433Z,19.73
2022-12-15T03:04:15.884Z,18.90
2022-12-15T03:06:44.847Z,18.17
2022-12-15T03:09:13.116Z,19.50
2022-12-15T03:11:41.727Z,19.40
2022-12-15T03:14:09.796Z,19.20
2022-12-15T03:16:38.437Z,18.43
2022-12-15T03:19:08.519Z,18.10
2022-12-15T03:21:36.610Z,19.23
2022-12-15T03:24:05.655Z,19.37
2022-12-15T03:26:35.004Z,19.43
2022-12-15T03:29:03.636Z,18.63
2022-12-15T03:31:33.511Z,19.23
2022-12-15T03:34:02.119Z,18.40
2022-12-15T03:36:32.119Z,20.23
2022-12-15T03:39:00.713Z,18.17
2022-12-15T03:41:29.370Z,20.37
2022-12-15T03:43:57.945Z,20.10
2022-12-15T03:46:27.392Z,18.93
2022-12-15T03:48:55.783Z,19.53
2022-12-15T03:51:24.064Z,20.17
2022-12-15T03:53:54.664Z,19.53
2022-12-15T03:56:22.765Z,19.67
2022-12-15T03:58:51.348Z,19.73
2022-12-15T04:01:28.101Z,20.57
2022-12-15T04:04:00.500Z,20.00
2022-12-15T04:06:29.957Z,19.27
2022-12-15T04:09:00.190Z,19.03
2022-12-15T04:11:28.826Z,19.93
2022-12-15T04:13:57.004Z,21.10
2022-12-15T04:16:25.674Z,20.80
2022-12-15T04:19:16.606Z,19.37
2022-12-15T04:21:44.203Z,18.10
2022-12-15T04:24:30.790Z,19.60
2022-12-15T04:27:16.835Z,20.23
2022-12-15T04:30:02.241Z,20.03
2022-12-15T04:32:49.773Z,19.57
2022-12-15T04:35:38.839Z,19.33
2022-12-15T04:38:24.359Z,19.73
2022-12-15T04:41:11.400Z,19.20
2022-12-15T04:43:57.581Z,20.87
2022-12-15T04:46:43.976Z,18.47
2022-12-15T04:49:29.778Z,18.27
2022-12-15T04:52:17.228Z,19.80
2022-12-15T04:55:03.144Z,19.23
2022-12-15T04:57:49.898Z,19.17
2022-12-15T05:00:36.254Z,18.87
2022-12-15T05:03:23.473Z,21.67
2022-12-15T05:06:09.697Z,19.03
2022-12-15T05:08:55.735Z,20.03
2022-12-15T05:11:42.009Z,20.50
2022-12-15T05:14:29.101Z,20.93
2022-12-15T05:17:15.396Z,19.63
2022-12-15T05:20:01.083Z,20.17
2022-12-15T05:22:47.028Z,18.43
2022-12-15T05:25:32.717Z,19.93
2022-12-15T05:28:18.538Z,19.33
2022-12-15T05:31:05.459Z,19.77
2022-12-15T05:33:34.024Z,19.97
2022-12-15T05:36:02.408Z,19.07
2022-12-15T05:38:31.012Z,19.90
2022-12-15T05:40:59.433Z,21.60
2022-12-15T05:43:27.714Z,20.63
2022-12-15T05:45:58.375Z,20.70
2022-12-15T05:48:28.659Z,20.70
2022-12-15T05:50:56.774Z,20.67
2022-12-15T05:53:24.904Z,21.00
2022-12-15T05:55:53.532Z,21.03
2022-12-15T05:58:21.671Z,21.00
2022-12-15T06:00:50.251Z,21.47
2022-12-15T06:03:20.313Z,21.83
2022-12-15T06:05:53.102Z,21.07
2022-12-15T06:08:24.846Z,21.37
2022-12-15T06:10:54.533Z,21.80
2022-12-15T06:13:23.302Z,22.10
2022-12-15T06:15:59.010Z,29.27
2022-12-15T06:18:32.551Z,29.63
2022-12-15T06:21:06.586Z,27.17
2022-12-15T06:23:35.873Z,25.00
2022-12-15T06:26:11.477Z,24.27
2022-12-15T06:28:40.317Z,21.43
2022-12-15T06:31:10.911Z,23.13
2022-12-15T06:33:41.283Z,24.13
2022-12-15T06:36:12.308Z,24.20
2022-12-15T06:38:43.906Z,22.40
2022-12-15T06:41:13.704Z,23.23
2022-12-15T06:43:42.477Z,22.47
2022-12-15T06:46:11.355Z,22.13
2022-12-15T06:48:42.351Z,22.83
2022-12-15T06:51:16.775Z,23.57
2022-12-15T06:53:49.329Z,23.17
2022-12-15T06:56:23.232Z,24.77
2022-12-15T06:58:55.461Z,23.37
2022-12-15T07:01:24.954Z,23.87
2022-12-15T07:03:56.130Z,23.80
2022-12-15T07:06:25.152Z,24.10
2022-12-15T07:08:56.983Z,23.00
2022-12-15T07:11:25.496Z,23.23
2022-12-15T07:13:54.288Z,23.23
2022-12-15T07:16:24.032Z,22.80
2022-12-15T07:18:52.846Z,24.53
2022-12-15T07:21:22.326Z,26.27
2022-12-15T07:23:58.928Z,25.33
2022-12-15T07:26:27.902Z,27.90
2022-12-15T07:28:56.602Z,26.90
2022-12-15T07:31:25.922Z,25.70
2022-12-15T07:33:55.153Z,24.67
2022-12-15T07:36:25.262Z,26.73
2022-12-15T07:38:54.190Z,24.33
2022-12-15T07:41:22.862Z,23.07
2022-12-15T07:43:50.965Z,23.73
2022-12-15T07:46:19.967Z,24.73
2022-12-15T07:48:50.937Z,24.73
2022-12-15T07:51:21.495Z,23.47
2022-12-15T07:53:52.225Z,25.00
2022-12-15T07:56:21.717Z,24.53
2022-12-15T07:58:49.910Z,24.30
2022-12-15T08:01:18.240Z,24.80
2022-12-15T08:03:46.706Z,24.87
2022-12-15T08:06:16.510Z,22.87
2022-12-15T08:08:49.965Z,22.80
2022-12-15T08:11:22.098Z,22.97
2022-12-15T08:14:10.543Z,23.20
2022-12-15T08:16:40.314Z,21.97
2022-12-15T08:19:12.306Z,24.20
2022-12-15T08:21:41.392Z,24.30
2022-12-15T08:24:11.131Z,23.77
2022-12-15T08:26:41.638Z,24.43
2022-12-15T08:32:01.480Z,24.57
2022-12-15T08:34:29.774Z,25.97
2022-12-15T08:36:58.662Z,25.17
2022-12-15T08:39:28.019Z,26.80
2022-12-15T08:41:57.577Z,26.03
2022-12-15T08:44:26.196Z,25.67
2022-12-15T08:46:54.315Z,24.17
2022-12-15T08:49:22.939Z,26.23
2022-12-15T08:51:51.612Z,25.80
2022-12-15T08:54:21.184Z,26.80
2022-12-15T08:56:49.768Z,28.40
2022-12-15T08:59:20.397Z,29.07
2022-12-15T09:01:48.865Z,28.17
2022-12-15T09:04:17.677Z,26.07
2022-12-15T09:06:50.685Z,27.87
2022-12-15T09:09:19.914Z,28.47
2022-12-15T09:11:48.548Z,32.47
2022-12-15T09:14:25.567Z,32.43
2022-12-15T09:16:56.958Z,34.73
2022-12-15T09:19:25.826Z,33.20
2022-12-15T09:21:54.405Z,33.93
2022-12-15T09:24:34.059Z,33.13
2022-12-15T09:27:04.848Z,29.90
2022-12-15T09:29:35.032Z,30.33
2022-12-15T09:32:07.646Z,29.97
2022-12-15T09:34:39.195Z,30.20
2022-12-15T09:37:07.444Z,27.67
2022-12-15T09:39:36.061Z,25.90
2022-12-15T09:42:04.345Z,24.40
2022-12-15T09:44:35.567Z,27.17
2022-12-15T09:47:14.238Z,27.60
2022-12-15T09:49:54.774Z,26.03
2022-12-15T09:52:27.158Z,24.87
2022-12-15T09:54:56.440Z,26.57
2022-12-15T09:57:33.058Z,26.10
2022-12-15T10:00:15.816Z,26.70
2022-12-15T10:03:24.799Z,28.17
2022-12-15T10:06:18.113Z,25.57
2022-12-15T10:08:51.591Z,25.83
2022-12-15T10:11:26.372Z,27.23
2022-12-15T10:14:01.243Z,27.50
2022-12-15T10:16:36.038Z,28.00
2022-12-15T10:19:10.460Z,27.50
2022-12-15T10:21:38.946Z,27.23
2022-12-15T10:24:37.438Z,31.50
2022-12-15T10:27:32.773Z,31.17
2022-12-15T10:30:02.874Z,28.33
2022-12-15T10:32:50.450Z,28.60
2022-12-15T10:35:22.686Z,26.63
2022-12-15T10:37:50.972Z,27.97
2022-12-15T10:40:22.263Z,27.77
2022-12-15T10:42:51.568Z,26.87
2022-12-15T10:45:40.169Z,31.30
2022-12-15T10:48:21.169Z,32.97
2022-12-15T10:50:50.251Z,32.83
2022-12-15T10:53:36.205Z,32.90
2022-12-15T10:56:08.898Z,31.83
2022-12-15T10:58:50.167Z,31.37
2022-12-15T11:01:21.145Z,30.37
2022-12-15T11:03:52.949Z,31.90
2022-12-15T11:06:23.824Z,29.47
2022-12-15T11:08:54.241Z,32.50
2022-12-15T11:11:47.157Z,34.37
2022-12-15T11:14:19.248Z,29.80
2022-12-15T11:16:55.389Z,31.07
2022-12-15T11:19:37.504Z,31.80
2022-12-15T11:22:13.865Z,35.43
2022-12-15T11:24:46.530Z,33.23
2022-12-15T11:27:24.277Z,36.90
2022-12-15T11:30:05.798Z,31.90
2022-12-15T11:32:36.396Z,31.20
2022-12-15T11:35:14.404Z,30.97
2022-12-15T11:37:44.829Z,32.83
2022-12-15T11:40:31.480Z,35.70
2022-12-15T11:43:15.325Z,31.53
2022-12-15T11:45:50.877Z,31.40
2022-12-15T11:48:22.552Z,31.73
2022-12-15T11:51:00.666Z,30.87
2022-12-15T11:54:05.017Z,29.73
2022-12-15T11:56:36.895Z,31.13
2022-12-15T11:59:33.414Z,31.67
2022-12-15T12:02:22.295Z,30.93
2022-12-15T12:05:05.874Z,31.30
2022-12-15T12:07:45.426Z,31.00
2022-12-15T12:10:28.640Z,31.30
2022-12-15T12:13:06.268Z,32.50
2022-12-15T12:15:43.086Z,29.70
2022-12-15T12:18:19.526Z,31.37
2022-12-15T12:20:52.802Z,30.27
2022-12-15T12:23:29.317Z,30.60
2022-12-15T12:26:03.340Z,30.97
2022-12-15T12:28:43.401Z,28.07
2022-12-15T12:31:23.888Z,28.60
2022-12-15T12:34:00.356Z,29.80
2022-12-15T12:36:28.493Z,28.73
2022-12-15T12:38:59.943Z,29.47
2022-12-15T12:41:40.137Z,29.93
2022-12-15T12:44:15.416Z,29.80
2022-12-15T12:46:48.853Z,30.87
2022-12-15T12:49:27.239Z,31.23
2022-12-15T12:51:59.138Z,29.33
2022-12-15T12:54:48.712Z,32.00
2022-12-15T12:57:38.786Z,31.23
2022-12-15T13:00:20.707Z,31.80
2022-12-15T13:03:17.975Z,32.90
2022-12-15T13:05:52.180Z,29.60
2022-12-15T13:08:51.701Z,29.30
2022-12-15T13:11:57.824Z,28.30
2022-12-15T13:14:37.938Z,28.50
2022-12-15T13:17:28.534Z,28.37
2022-12-15T13:20:27.813Z,27.43
2022-12-15T13:23:12.403Z,28.40
2022-12-15T13:25:48.574Z,26.80
2022-12-15T13:28:50.636Z,29.83
2022-12-15T13:31:34.076Z,28.53
2022-12-15T13:34:18.654Z,28.07
2022-12-15T13:36:55.916Z,30.13
2022-12-15T13:39:55.926Z,29.67
2022-12-15T13:42:37.253Z,29.00
2022-12-15T13:45:43.205Z,28.37
2022-12-15T13:48:32.082Z,27.20
2022-12-15T13:51:11.390Z,28.50
2022-12-15T13:53:44.045Z,29.13
2022-12-15T13:56:40.232Z,28.73
2022-12-15T13:59:18.403Z,28.07
2022-12-15T14:01:51.555Z,29.93
2022-12-15T14:04:23.270Z,30.67
2022-12-15T14:06:54.473Z,27.73
2022-12-15T14:09:26.957Z,30.20
2022-12-15T14:11:55.886Z,28.73
2022-12-15T14:14:26.872Z,28.53
2022-12-15T14:17:01.542Z,29.83
2022-12-15T14:19:40.673Z,28.50
2022-12-15T14:22:28.173Z,28.63
2022-12-15T14:25:03.342Z,27.40
2022-12-15T14:27:34.318Z,28.73
2022-12-15T14:30:24.113Z,28.80
2022-12-15T14:32:58.382Z,29.20
2022-12-15T14:35:31.198Z,29.47
2022-12-15T14:38:03.151Z,29.37
2022-12-15T14:40:32.501Z,28.67
2022-12-15T14:43:00.910Z,29.87
2022-12-15T14:45:32.985Z,31.10
2022-12-15T14:48:39.624Z,29.30
2022-12-15T14:50:52.647Z,28.77
2022-12-15T14:53:22.239Z,27.93
2022-12-15T14:55:51.649Z,29.33
2022-12-15T14:58:30.489Z,30.10
2022-12-15T15:01:00.153Z,29.00
2022-12-15T15:03:36.923Z,32.20
2022-12-15T15:06:17.505Z,31.60
2022-12-15T15:08:49.958Z,30.03
2022-12-15T15:11:29.602Z,31.37
2022-12-15T15:14:00.934Z,30.60
2022-12-15T15:16:30.035Z,34.97
2022-12-15T15:19:00.799Z,34.90
2022-12-15T15:21:35.489Z,33.73
2022-12-15T15:24:05.626Z,32.17
2022-12-15T15:26:34.233Z,31.33
2022-12-15T15:29:02.836Z,35.47
2022-12-15T15:31:41.214Z,34.23
2022-12-15T15:34:11.810Z,32.57
2022-12-15T15:36:41.344Z,32.77
2022-12-15T15:39:16.611Z,31.47
2022-12-15T15:41:44.862Z,31.60
2022-12-15T15:44:15.867Z,32.00
2022-12-15T15:46:48.633Z,29.80
2022-12-15T15:49:19.414Z,31.00
2022-12-15T15:51:49.541Z,30.70
2022-12-15T15:54:21.851Z,30.67
2022-12-15T15:56:50.401Z,30.93
2022-12-15T15:59:23.359Z,29.10
2022-12-15T16:01:55.970Z,29.73
2022-12-15T16:04:24.291Z,28.47
2022-12-15T16:06:54.507Z,29.27
2022-12-15T16:09:23.669Z,28.93
2022-12-15T16:11:52.376Z,28.53
2022-12-15T16:14:20.991Z,30.03
2022-12-15T16:16:49.159Z,32.30
2022-12-15T16:19:17.291Z,29.93
2022-12-15T16:21:45.836Z,28.23
2022-12-15T16:24:18.765Z,28.23
2022-12-15T16:26:51.079Z,28.87
2022-12-15T16:29:21.326Z,27.70
2022-12-15T16:31:50.042Z,27.70
2022-12-15T16:34:19.291Z,29.13
2022-12-15T16:36:48.450Z,29.73
2022-12-15T16:39:29.538Z,32.03
2022-12-15T16:41:59.694Z,31.63
2022-12-15T16:44:30.240Z,28.87
2022-12-15T16:46:59.376Z,31.23
2022-12-15T16:49:28.288Z,29.53
2022-12-15T16:51:56.855Z,35.90
2022-12-15T16:54:28.469Z,37.03
2022-12-15T16:56:58.899Z,31.63
2022-12-15T16:59:36.187Z,29.33
2022-12-15T17:02:19.355Z,28.20
2022-12-15T17:04:48.116Z,30.03
2022-12-15T17:07:20.452Z,31.73
2022-12-15T17:09:51.779Z,32.97
2022-12-15T17:12:20.397Z,32.53
2022-12-15T17:14:49.179Z,30.67
2022-12-15T17:17:19.092Z,31.93
2022-12-15T17:20:19.979Z,31.30
2022-12-15T17:22:37.983Z,28.87
2022-12-15T17:25:14.141Z,30.93
2022-12-15T17:27:42.827Z,29.70
2022-12-15T17:30:14.380Z,30.93
2022-12-15T17:32:43.032Z,28.73
2022-12-15T17:35:12.958Z,30.47
2022-12-15T17:37:41.714Z,29.87
2022-12-15T17:40:23.307Z,27.80
2022-12-15T17:42:52.081Z,27.73
2022-12-15T17:45:23.716Z,29.63
2022-12-15T17:47:53.092Z,29.23
2022-12-15T17:50:21.773Z,27.97
2022-12-15T17:52:50.105Z,29.20
2022-12-15T17:55:29.075Z,30.37
2022-12-15T17:58:00.667Z,29.73
2022-12-15T18:00:30.666Z,32.70
2022-12-15T18:03:01.626Z,30.77
2022-12-15T18:05:31.594Z,29.70
2022-12-15T18:08:04.705Z,28.63
2022-12-15T18:10:38.305Z,29.63
2022-12-15T18:13:17.193Z,35.27
2022-12-15T18:15:46.646Z,35.17
2022-12-15T18:18:15.935Z,34.40
2022-12-15T18:20:44.429Z,32.63
2022-12-15T18:23:17.039Z,34.30
2022-12-15T18:25:46.533Z,33.00
2022-12-15T18:28:21.967Z,29.93
2022-12-15T18:30:54.095Z,28.90
2022-12-15T18:33:25.358Z,28.83
2022-12-15T18:35:57.810Z,30.20
2022-12-15T18:38:28.090Z,31.07
2022-12-15T18:41:00.579Z,52.07
2022-12-15T18:43:32.583Z,51.27
2022-12-15T18:46:01.404Z,56.57
2022-12-15T18:48:31.838Z,41.13
2022-12-15T18:51:02.842Z,35.97
2022-12-15T18:53:33.800Z,32.67
2022-12-15T18:56:05.744Z,33.30
2022-12-15T18:58:36.649Z,36.57
2022-12-15T19:01:07.500Z,37.83
2022-12-15T19:03:37.573Z,39.07
2022-12-15T19:06:12.167Z,49.87
2022-12-15T19:08:42.133Z,38.93
2022-12-15T19:11:14.695Z,39.23
2022-12-15T19:13:43.255Z,36.27
2022-12-15T19:16:19.172Z,34.97
2022-12-15T19:19:04.898Z,36.00
2022-12-15T19:21:52.083Z,40.13
2022-12-15T19:24:46.296Z,37.13
2022-12-15T19:27:19.134Z,36.47
2022-12-15T19:29:48.365Z,36.20
2022-12-15T19:32:16.603Z,36.10
2022-12-15T19:34:45.379Z,36.37
2022-12-15T19:37:18.061Z,37.60
2022-12-15T19:39:47.570Z,44.93
2022-12-15T19:42:20.904Z,44.00
2022-12-15T19:44:49.077Z,47.70
2022-12-15T19:47:17.410Z,44.87
2022-12-15T19:49:45.641Z,46.00
2022-12-15T19:52:15.655Z,42.80
2022-12-15T19:54:44.809Z,47.30
2022-12-15T19:57:14.297Z,55.27
2022-12-15T19:59:44.167Z,52.10
2022-12-15T20:02:18.465Z,49.63
2022-12-15T20:04:47.167Z,39.60
2022-12-15T20:07:19.207Z,34.60
2022-12-15T20:09:47.519Z,40.63
2022-12-15T20:12:18.959Z,36.77
2022-12-15T20:14:48.697Z,34.23
2022-12-15T20:17:16.883Z,34.00
2022-12-15T20:19:45.809Z,30.00
2022-12-15T20:22:16.319Z,30.40
2022-12-15T20:24:45.562Z,29.80
2022-12-15T20:27:15.300Z,27.80
2022-12-15T20:29:44.220Z,28.53
2022-12-15T20:32:18.897Z,29.83
2022-12-15T20:34:48.167Z,30.63
2022-12-15T20:37:19.896Z,29.20
2022-12-15T20:39:51.461Z,28.03
2022-12-15T20:42:24.557Z,28.87
2022-12-15T20:44:54.204Z,26.10
2022-12-15T20:47:27.560Z,27.77
2022-12-15T20:49:56.392Z,26.50
2022-12-15T20:52:27.765Z,24.57
2022-12-15T20:54:56.141Z,25.33
2022-12-15T20:57:24.767Z,24.63
2022-12-15T20:59:52.806Z,23.73
2022-12-15T21:02:24.758Z,25.67
2022-12-15T21:04:53.102Z,24.77
2022-12-15T21:07:21.218Z,24.37
2022-12-15T21:09:49.870Z,24.63
2022-12-15T21:12:19.405Z,24.53
2022-12-15T21:14:48.136Z,25.00
2022-12-15T21:17:17.455Z,26.23
2022-12-15T21:19:47.077Z,25.50
2022-12-15T21:22:20.617Z,25.47
2022-12-15T21:24:51.141Z,26.10
2022-12-15T21:27:20.037Z,26.63
2022-12-15T21:29:52.261Z,25.33
2022-12-15T21:32:22.124Z,24.60
2022-12-15T21:34:52.135Z,24.43
2022-12-15T21:37:27.362Z,24.37
2022-12-15T21:39:56.535Z,24.00
2022-12-15T21:42:24.928Z,21.53
2022-12-15T21:44:53.547Z,21.93
2022-12-15T21:47:47.094Z,21.50
2022-12-15T21:50:16.774Z,22.63
2022-12-15T21:52:45.501Z,21.77
2022-12-15T21:55:17.012Z,21.43
2022-12-15T21:57:48.360Z,20.43
2022-12-15T22:00:19.083Z,21.13
2022-12-15T22:02:49.604Z,21.13
2022-12-15T22:05:22.678Z,20.40
2022-12-15T22:07:51.738Z,20.57
2022-12-15T22:10:20.377Z,19.60
2022-12-15T22:12:58.982Z,20.30
2022-12-15T22:15:28.365Z,20.20
2022-12-15T22:17:57.116Z,19.47
2022-12-15T22:20:26.757Z,20.83
2022-12-15T22:22:55.050Z,21.00
2022-12-15T22:25:25.593Z,19.43
2022-12-15T22:27:54.795Z,18.80
2022-12-15T22:30:25.481Z,20.37
2022-12-15T22:32:53.993Z,20.30
2022-12-15T22:35:23.766Z,19.20
2022-12-15T22:37:55.238Z,19.87
2022-12-15T22:40:24.572Z,19.30
2022-12-15T22:42:55.686Z,19.53
2022-12-15T22:45:25.008Z,17.60
2022-12-15T22:47:55.322Z,18.40
2022-12-15T22:50:26.521Z,18.30
2022-12-15T22:52:56.058Z,18.03
2022-12-15T22:55:25.456Z,19.17
2022-12-15T22:57:59.694Z,19.17
2022-12-15T23:00:28.542Z,17.03
2022-12-15T23:05:26.852Z,16.67
2022-12-15T23:07:56.462Z,16.77
2022-12-15T23:10:47.839Z,18.30
2022-12-15T23:13:16.017Z,16.50
2022-12-15T23:16:01.528Z,16.60
2022-12-15T23:18:30.139Z,16.47
2022-12-15T23:20:58.549Z,16.67
2022-12-15T23:23:28.641Z,16.03
2022-12-15T23:25:56.764Z,16.40
2022-12-15T23:28:25.537Z,16.83
2022-12-15T23:30:54.641Z,16.23
2022-12-15T23:33:23.604Z,15.70
2022-12-15T23:35:54.898Z,14.77
2022-12-15T23:38:23.545Z,16.40
2022-12-15T23:40:55.771Z,15.70
2022-12-15T23:43:24.515Z,15.93
2022-12-15T23:46:00.783Z,16.57
2022-12-15T23:48:33.174Z,16.30
2022-12-15T23:51:06.224Z,16.83
2022-12-15T23:53:35.718Z,16.07
2022-12-15T23:56:10.818Z,16.27
2022-12-15T23:58:40.948Z,16.43
